Time,TemperatureF,DewpointF,PressureIn,WindDirection,WindDirectionDegrees,WindSpeedMPH,WindSpeedGustMPH,Humidity,HourlyPrecipIn,Conditions,Clouds,dailyrainin,SoftwareType,DateUTC
2013-07-29 00:13:00,55.8,54.0,30.05,West,259,0.0,1.0,94,0.00,,,0.00,weatherlink.com 1.10,2013-07-29 04:13:00,
2013-07-29 00:28:00,55.3,54.0,30.05,West,259,0.0,0.0,94,0.00,,,0.00,weatherlink.com 1.10,2013-07-29 04:28:00,
2013-07-29 00:43:00,54.8,53.0,30.05,West,259,0.0,0.0,94,0.00,,,0.00,weatherlink.com 1.10,2013-07-29 04:43:00,
2013-07-29 00:58:00,54.5,53.0,30.06,West,259,0.0,0.0,95,0.00,,,0.00,weatherlink.com 1.10,2013-07-29 04:58:00,
2013-07-29 01:13:00,54.0,53.0,30.06,West,259,0.0,0.0,95,0.00,,,0.00,weatherlink.com 1.10,2013-07-29 05:13:00,
2013-07-29 01:28:00,53.8,52.0,30.06,West,259,0.0,0.0,95,0.00,,,0.00,weatherlink.com 1.10,2013-07-29 05:28:00,
2013-07-29 01:43:00,53.4,52.0,30.06,West,259,0.0,0.0,95,0.00,,,0.00,weatherlink.com 1.10,2013-07-29 05:43:00,
2013-07-29 01:58:00,53.2,52.0,30.06,West,259,0.0,0.0,95,0.00,,,0.00,weatherlink.com 1.10,2013-07-29 05:58:00,
2013-07-29 02:13:00,53.1,52.0,30.06,West,259,0.0,0.0,95,0.00,,,0.00,weatherlink.com 1.10,2013-07-29 06:13:00,
2013-07-29 02:28:00,52.8,52.0,30.06,West,259,0.0,0.0,95,0.00,,,0.00,weatherlink.com 1.10,2013-07-29 06:28:00,
2013-07-29 02:43:00,52.4,51.0,30.06,West,259,0.0,0.0,95,0.00,,,0.00,weatherlink.com 1.10,2013-07-29 06:43:00,
2013-07-29 02:58:00,52.5,51.0,30.06,West,259,0.0,0.0,96,0.00,,,0.00,weatherlink.com 1.10,2013-07-29 06:58:00,
2013-07-29 03:13:00,52.4,51.0,30.06,West,259,0.0,0.0,96,0.00,,,0.00,weatherlink.com 1.10,2013-07-29 07:13:00,
2013-07-29 03:28:00,52.1,51.0,30.06,West,259,0.0,0.0,96,0.00,,,0.00,weatherlink.com 1.10,2013-07-29 07:28:00,
2013-07-29 03:43:00,51.7,51.0,30.06,West,259,0.0,0.0,96,0.00,,,0.00,weatherlink.com 1.10,2013-07-29 07:43:00,
2013-07-29 03:58:00,51.4,50.0,30.07,West,259,0.0,0.0,96,0.00,,,0.00,weatherlink.com 1.10,2013-07-29 07:58:00,
2013-07-29 04:13:00,51.3,50.0,30.07,West,259,0.0,0.0,96,0.00,,,0.00,weatherlink.com 1.10,2013-07-29 08:13:00,
2013-07-29 04:28:00,51.1,50.0,30.07,West,259,0.0,0.0,96,0.00,,,0.00,weatherlink.com 1.10,2013-07-29 08:28:00,
2013-07-29 04:43:00,50.6,50.0,30.07,West,259,0.0,0.0,96,0.00,,,0.00,weatherlink.com 1.10,2013-07-29 08:43:00,
2013-07-29 04:58:00,50.6,50.0,30.07,West,259,0.0,0.0,96,0.00,,,0.00,weatherlink.com 1.10,2013-07-29 08:58:00,
2013-07-29 05:13:00,50.6,50.0,30.07,West,259,0.0,0.0,96,0.00,,,0.00,weatherlink.com 1.10,2013-07-29 09:13:00,
2013-07-29 05:28:00,50.4,49.0,30.08,West,259,0.0,0.0,96,0.00,,,0.00,weatherlink.com 1.10,2013-07-29 09:28:00,
2013-07-29 05:43:00,50.3,49.0,30.08,West,259,0.0,0.0,96,0.00,,,0.00,weatherlink.com 1.10,2013-07-29 09:43:00,
2013-07-29 05:58:00,50.2,49.0,30.08,West,259,0.0,0.0,96,0.00,,,0.00,weatherlink.com 1.10,2013-07-29 09:58:00,
2013-07-29 06:14:00,50.0,49.0,30.09,West,259,0.0,0.0,96,0.00,,,0.00,weatherlink.com 1.10,2013-07-29 10:14:00,
2013-07-29 06:29:00,50.1,49.0,30.09,West,259,0.0,0.0,96,0.00,,,0.00,weatherlink.com 1.10,2013-07-29 10:29:00,
2013-07-29 06:44:00,50.4,50.0,30.10,WNW,297,0.0,0.0,97,0.00,,,0.00,weatherlink.com 1.10,2013-07-29 10:44:00,
2013-07-29 06:59:00,50.6,50.0,30.10,WNW,297,0.0,0.0,97,0.00,,,0.00,weatherlink.com 1.10,2013-07-29 10:59:00,
2013-07-29 07:14:00,51.0,50.0,30.10,WNW,297,0.0,0.0,97,0.00,,,0.00,weatherlink.com 1.10,2013-07-29 11:14:00,
2013-07-29 07:29:00,52.4,52.0,30.10,WNW,297,0.0,0.0,97,0.00,,,0.00,weatherlink.com 1.10,2013-07-29 11:29:00,
2013-07-29 07:44:00,55.5,55.0,30.10,WNW,297,0.0,1.0,98,0.00,,,0.00,weatherlink.com 1.10,2013-07-29 11:44:00,
2013-07-29 08:29:00,61.5,60.0,30.10,WSW,240,1.0,3.0,93,0.00,,,0.00,weatherlink.com 1.10,2013-07-29 12:29:00,
2013-07-29 08:59:00,62.3,57.0,30.11,West,281,2.0,5.0,83,0.00,,,0.00,weatherlink.com 1.10,2013-07-29 12:59:00,
2013-07-29 09:14:00,63.0,57.0,30.11,SSW,203,1.0,5.0,81,0.00,,,0.00,weatherlink.com 1.10,2013-07-29 13:14:00,
2013-07-29 09:29:00,64.3,58.0,30.11,West,279,2.0,4.0,80,0.00,,,0.00,weatherlink.com 1.10,2013-07-29 13:29:00,
2013-07-29 09:44:00,65.0,58.0,30.11,WNW,288,2.0,6.0,77,0.00,,,0.00,weatherlink.com 1.10,2013-07-29 13:44:00,
2013-07-29 10:14:00,66.6,59.0,30.11,West,280,2.0,5.0,76,0.00,,,0.00,weatherlink.com 1.10,2013-07-29 14:14:00,
2013-07-29 10:29:00,67.9,59.0,30.11,WNW,293,0.0,5.0,73,0.00,,,0.00,weatherlink.com 1.10,2013-07-29 14:29:00,
2013-07-29 10:44:00,68.1,58.0,30.11,WNW,290,1.0,6.0,71,0.00,,,0.00,weatherlink.com 1.10,2013-07-29 14:44:00,
2013-07-29 10:59:00,68.3,58.0,30.11,ESE,113,0.0,6.0,70,0.00,,,0.00,weatherlink.com 1.10,2013-07-29 14:59:00,
2013-07-29 11:15:00,68.6,58.0,30.11,WSW,249,3.0,6.0,69,0.00,,,0.00,weatherlink.com 1.10,2013-07-29 15:15:00,
2013-07-29 11:29:00,69.2,58.0,30.11,West,278,5.0,10.0,67,0.00,,,0.00,weatherlink.com 1.10,2013-07-29 15:29:00,
2013-07-29 11:44:00,68.6,57.0,30.11,South,169,3.0,7.0,66,0.00,,,0.00,weatherlink.com 1.10,2013-07-29 15:44:00,
2013-07-29 11:59:00,68.6,56.0,30.11,WNW,290,4.0,9.0,64,0.00,,,0.00,weatherlink.com 1.10,2013-07-29 15:59:00,
2013-07-29 12:14:00,69.0,56.0,30.11,WSW,252,3.0,6.0,63,0.00,,,0.00,weatherlink.com 1.10,2013-07-29 16:14:00,
2013-07-29 12:29:00,69.4,56.0,30.11,West,266,4.0,10.0,62,0.00,,,0.00,weatherlink.com 1.10,2013-07-29 16:29:00,
2013-07-29 13:15:00,72.0,55.0,30.11,SW,229,2.0,8.0,56,0.00,,,0.00,weatherlink.com 1.10,2013-07-29 17:15:00,
2013-07-29 13:30:00,72.2,57.0,30.11,WSW,246,1.0,6.0,59,0.00,,,0.00,weatherlink.com 1.10,2013-07-29 17:30:00,
2013-07-29 13:45:00,71.5,56.0,30.11,ESE,103,0.0,5.0,59,0.00,,,0.00,weatherlink.com 1.10,2013-07-29 17:45:00,
2013-07-29 14:00:00,72.8,56.0,30.11,SSE,154,1.0,7.0,56,0.00,,,0.00,weatherlink.com 1.10,2013-07-29 18:00:00,
2013-07-29 14:15:00,72.3,57.0,30.11,WSW,248,1.0,4.0,59,0.00,,,0.00,weatherlink.com 1.10,2013-07-29 18:15:00,
2013-07-29 14:30:00,71.5,56.0,30.12,SSW,208,3.0,7.0,58,0.00,,,0.00,weatherlink.com 1.10,2013-07-29 18:30:00,
2013-07-29 15:00:00,71.7,56.0,30.12,WSW,243,2.0,4.0,58,0.00,,,0.00,weatherlink.com 1.10,2013-07-29 19:00:00,
2013-07-29 15:15:00,71.2,56.0,30.12,West,276,3.0,5.0,60,0.00,,,0.00,weatherlink.com 1.10,2013-07-29 19:15:00,
2013-07-29 15:30:00,71.8,57.0,30.12,WSW,240,3.0,6.0,61,0.00,,,0.00,weatherlink.com 1.10,2013-07-29 19:30:00,
2013-07-29 15:45:00,71.0,57.0,30.12,WNW,295,3.0,4.0,62,0.00,,,0.00,weatherlink.com 1.10,2013-07-29 19:45:00,
2013-07-29 16:00:00,70.0,58.0,30.12,SW,221,0.0,3.0,65,0.00,,,0.00,weatherlink.com 1.10,2013-07-29 20:00:00,
2013-07-29 16:15:00,72.2,58.0,30.11,SSW,211,1.0,6.0,62,0.00,,,0.00,weatherlink.com 1.10,2013-07-29 20:15:00,
2013-07-29 16:30:00,72.0,57.0,30.11,WNW,300,0.0,5.0,60,0.00,,,0.00,weatherlink.com 1.10,2013-07-29 20:30:00,
2013-07-29 16:45:00,70.2,59.0,30.12,West,276,1.0,2.0,67,0.00,,,0.00,weatherlink.com 1.10,2013-07-29 20:45:00,
2013-07-29 17:00:00,69.9,60.0,30.12,WSW,256,0.0,1.0,71,0.00,,,0.00,weatherlink.com 1.10,2013-07-29 21:00:00,
2013-07-29 17:15:00,71.6,60.0,30.12,WSW,250,1.0,2.0,66,0.00,,,0.00,weatherlink.com 1.10,2013-07-29 21:15:00,
2013-07-29 17:30:00,71.4,59.0,30.12,SW,236,0.0,4.0,64,0.00,,,0.00,weatherlink.com 1.10,2013-07-29 21:30:00,
2013-07-29 17:45:00,71.6,58.0,30.12,WNW,287,1.0,2.0,63,0.00,,,0.00,weatherlink.com 1.10,2013-07-29 21:45:00,
2013-07-29 18:00:00,72.1,58.0,30.12,WSW,240,0.0,6.0,61,0.00,,,0.00,weatherlink.com 1.10,2013-07-29 22:00:00,
2013-07-29 18:15:00,71.4,59.0,30.12,WNW,296,0.0,2.0,66,0.00,,,0.00,weatherlink.com 1.10,2013-07-29 22:15:00,
2013-07-29 18:30:00,71.0,60.0,30.13,WNW,284,0.0,1.0,69,0.00,,,0.00,weatherlink.com 1.10,2013-07-29 22:30:00,
2013-07-29 18:45:00,72.0,59.0,30.13,ENE,75,0.0,1.0,63,0.00,,,0.00,weatherlink.com 1.10,2013-07-29 22:45:00,
2013-07-29 19:30:00,69.2,58.0,30.14,ESE,106,0.0,1.0,68,0.00,,,0.00,weatherlink.com 1.10,2013-07-29 23:30:00,
2013-07-29 19:45:00,67.9,58.0,30.14,ESE,106,0.0,0.0,70,0.00,,,0.00,weatherlink.com 1.10,2013-07-29 23:45:00,
2013-07-29 20:00:00,66.2,58.0,30.14,ESE,105,0.0,0.0,75,0.00,,,0.00,weatherlink.com 1.10,2013-07-30 00:00:00,
2013-07-29 20:15:00,64.7,57.0,30.15,ESE,105,0.0,0.0,77,0.00,,,0.00,weatherlink.com 1.10,2013-07-30 00:15:00,
2013-07-29 20:30:00,63.3,57.0,30.15,ESE,106,0.0,0.0,80,0.00,,,0.00,weatherlink.com 1.10,2013-07-30 00:30:00,
2013-07-29 20:45:00,61.8,56.0,30.16,ESE,106,0.0,0.0,82,0.00,,,0.00,weatherlink.com 1.10,2013-07-30 00:45:00,
2013-07-29 21:00:00,60.5,56.0,30.17,NNW,347,0.0,1.0,84,0.00,,,0.00,weatherlink.com 1.10,2013-07-30 01:00:00,
2013-07-29 21:15:00,59.5,55.0,30.17,NNW,347,0.0,0.0,86,0.00,,,0.00,weatherlink.com 1.10,2013-07-30 01:15:00,
2013-07-29 21:45:00,58.1,55.0,30.19,NNW,347,0.0,0.0,89,0.00,,,0.00,weatherlink.com 1.10,2013-07-30 01:45:00,
2013-07-29 22:15:00,57.6,55.0,30.20,NNW,347,0.0,0.0,91,0.00,,,0.00,weatherlink.com 1.10,2013-07-30 02:15:00,
2013-07-29 22:30:00,57.0,55.0,30.20,NNW,347,0.0,0.0,92,0.00,,,0.00,weatherlink.com 1.10,2013-07-30 02:30:00,
2013-07-29 22:45:00,56.6,54.0,30.20,NNW,347,0.0,0.0,92,0.00,,,0.00,weatherlink.com 1.10,2013-07-30 02:45:00,
2013-07-29 23:16:00,55.2,53.0,30.20,NNW,347,0.0,0.0,92,0.00,,,0.00,weatherlink.com 1.10,2013-07-30 03:16:00,
2013-07-29 23:46:00,54.5,53.0,30.20,NNW,347,0.0,0.0,94,0.00,,,0.00,weatherlink.com 1.10,2013-07-30 03:46:00,